sensor_id;sensor_type;location;lat;lon;timestamp;P1;durP1;ratioP1;P2;durP2;ratioP2
12312;SDS011;6220;53.580;9.758;2023-08-17T00:02:12;6.00;;;2.00;;
12312;SDS011;6220;53.580;9.758;2023-08-17T00:04:38;9.73;;;2.07;;
12312;SDS011;6220;53.580;9.758;2023-08-17T00:07:04;4.00;;;1.87;;
12312;SDS011;6220;53.580;9.758;2023-08-17T00:09:29;2.83;;;1.53;;
12312;SDS011;6220;53.580;9.758;2023-08-17T00:11:55;7.57;;;2.07;;
12312;SDS011;6220;53.580;9.758;2023-08-17T00:14:21;5.53;;;2.07;;
12312;SDS011;6220;53.580;9.758;2023-08-17T00:16:46;4.43;;;1.60;;
12312;SDS011;6220;53.580;9.758;2023-08-17T00:19:11;5.87;;;1.63;;
12312;SDS011;6220;53.580;9.758;2023-08-17T00:21:37;3.97;;;1.50;;
12312;SDS011;6220;53.580;9.758;2023-08-17T00:24:02;5.50;;;1.80;;
12312;SDS011;6220;53.580;9.758;2023-08-17T00:26:28;5.10;;;1.73;;
12312;SDS011;6220;53.580;9.758;2023-08-17T00:28:54;3.67;;;1.50;;
12312;SDS011;6220;53.580;9.758;2023-08-17T00:31:19;5.27;;;1.77;;
12312;SDS011;6220;53.580;9.758;2023-08-17T00:33:44;3.13;;;1.67;;
12312;SDS011;6220;53.580;9.758;2023-08-17T00:36:10;3.97;;;1.90;;
12312;SDS011;6220;53.580;9.758;2023-08-17T00:38:35;4.67;;;1.90;;
12312;SDS011;6220;53.580;9.758;2023-08-17T00:41:00;4.70;;;1.60;;
12312;SDS011;6220;53.580;9.758;2023-08-17T00:43:26;4.40;;;1.80;;
12312;SDS011;6220;53.580;9.758;2023-08-17T00:45:51;3.13;;;1.93;;
12312;SDS011;6220;53.580;9.758;2023-08-17T00:48:16;3.70;;;1.67;;
12312;SDS011;6220;53.580;9.758;2023-08-17T00:50:42;5.70;;;2.00;;
12312;SDS011;6220;53.580;9.758;2023-08-17T00:53:08;4.97;;;1.80;;
12312;SDS011;6220;53.580;9.758;2023-08-17T00:55:38;4.67;;;1.70;;
12312;SDS011;6220;53.580;9.758;2023-08-17T00:58:04;5.03;;;1.90;;
12312;SDS011;6220;53.580;9.758;2023-08-17T01:00:29;3.43;;;1.50;;
12312;SDS011;6220;53.580;9.758;2023-08-17T01:02:56;3.03;;;1.50;;
12312;SDS011;6220;53.580;9.758;2023-08-17T01:05:21;3.03;;;1.53;;
12312;SDS011;6220;53.580;9.758;2023-08-17T01:07:47;3.63;;;1.60;;
12312;SDS011;6220;53.580;9.758;2023-08-17T01:10:12;3.80;;;1.90;;
12312;SDS011;6220;53.580;9.758;2023-08-17T01:12:42;4.80;;;1.90;;
12312;SDS011;6220;53.580;9.758;2023-08-17T01:15:15;5.20;;;2.07;;
12312;SDS011;6220;53.580;9.758;2023-08-17T01:17:52;5.70;;;1.80;;
12312;SDS011;6220;53.580;9.758;2023-08-17T01:20:20;5.30;;;1.90;;
12312;SDS011;6220;53.580;9.758;2023-08-17T01:22:48;4.17;;;1.90;;
12312;SDS011;6220;53.580;9.758;2023-08-17T01:25:14;3.87;;;2.10;;
12312;SDS011;6220;53.580;9.758;2023-08-17T01:27:41;4.80;;;1.80;;
12312;SDS011;6220;53.580;9.758;2023-08-17T01:30:09;3.67;;;1.67;;
12312;SDS011;6220;53.580;9.758;2023-08-17T01:32:40;3.83;;;1.87;;
12312;SDS011;6220;53.580;9.758;2023-08-17T01:35:21;4.33;;;1.80;;
12312;SDS011;6220;53.580;9.758;2023-08-17T01:38:09;3.93;;;1.80;;
12312;SDS011;6220;53.580;9.758;2023-08-17T01:40:37;3.37;;;1.50;;
12312;SDS011;6220;53.580;9.758;2023-08-17T01:43:03;5.03;;;1.80;;
12312;SDS011;6220;53.580;9.758;2023-08-17T01:45:28;5.37;;;1.80;;
12312;SDS011;6220;53.580;9.758;2023-08-17T01:47:57;3.33;;;1.90;;
12312;SDS011;6220;53.580;9.758;2023-08-17T01:50:22;5.43;;;1.93;;
12312;SDS011;6220;53.580;9.758;2023-08-17T01:52:47;4.87;;;1.80;;
12312;SDS011;6220;53.580;9.758;2023-08-17T01:55:15;3.03;;;1.97;;
12312;SDS011;6220;53.580;9.758;2023-08-17T01:57:40;2.60;;;1.60;;
12312;SDS011;6220;53.580;9.758;2023-08-17T02:00:06;4.23;;;1.60;;
12312;SDS011;6220;53.580;9.758;2023-08-17T02:02:32;4.57;;;1.70;;
12312;SDS011;6220;53.580;9.758;2023-08-17T02:04:57;7.10;;;2.17;;
12312;SDS011;6220;53.580;9.758;2023-08-17T02:07:22;4.40;;;1.90;;
12312;SDS011;6220;53.580;9.758;2023-08-17T02:09:48;8.23;;;2.00;;
12312;SDS011;6220;53.580;9.758;2023-08-17T02:12:13;4.37;;;1.70;;
12312;SDS011;6220;53.580;9.758;2023-08-17T02:14:38;4.17;;;1.80;;
12312;SDS011;6220;53.580;9.758;2023-08-17T02:17:04;3.47;;;1.60;;
12312;SDS011;6220;53.580;9.758;2023-08-17T02:19:30;3.03;;;1.50;;
12312;SDS011;6220;53.580;9.758;2023-08-17T02:21:56;3.47;;;1.70;;
12312;SDS011;6220;53.580;9.758;2023-08-17T02:24:21;5.63;;;1.80;;
12312;SDS011;6220;53.580;9.758;2023-08-17T02:26:47;3.67;;;1.80;;
12312;SDS011;6220;53.580;9.758;2023-08-17T02:29:12;4.83;;;2.30;;
12312;SDS011;6220;53.580;9.758;2023-08-17T02:31:37;3.90;;;1.97;;
12312;SDS011;6220;53.580;9.758;2023-08-17T02:34:03;4.30;;;1.80;;
12312;SDS011;6220;53.580;9.758;2023-08-17T02:36:30;4.43;;;1.83;;
12312;SDS011;6220;53.580;9.758;2023-08-17T02:38:56;3.67;;;1.80;;
12312;SDS011;6220;53.580;9.758;2023-08-17T02:41:21;3.93;;;1.67;;
12312;SDS011;6220;53.580;9.758;2023-08-17T02:43:47;2.10;;;1.57;;
12312;SDS011;6220;53.580;9.758;2023-08-17T02:46:12;4.60;;;2.20;;
12312;SDS011;6220;53.580;9.758;2023-08-17T02:48:37;4.00;;;1.50;;
12312;SDS011;6220;53.580;9.758;2023-08-17T02:51:03;7.57;;;1.87;;
12312;SDS011;6220;53.580;9.758;2023-08-17T02:53:28;2.47;;;1.60;;
12312;SDS011;6220;53.580;9.758;2023-08-17T02:55:53;5.80;;;2.07;;
12312;SDS011;6220;53.580;9.758;2023-08-17T02:58:18;4.13;;;1.93;;
12312;SDS011;6220;53.580;9.758;2023-08-17T03:00:44;4.23;;;1.63;;
12312;SDS011;6220;53.580;9.758;2023-08-17T03:03:09;3.43;;;1.70;;
12312;SDS011;6220;53.580;9.758;2023-08-17T03:05:35;3.67;;;1.57;;
12312;SDS011;6220;53.580;9.758;2023-08-17T03:08:00;5.20;;;2.03;;
12312;SDS011;6220;53.580;9.758;2023-08-17T03:10:25;4.73;;;1.80;;
12312;SDS011;6220;53.580;9.758;2023-08-17T03:12:51;2.73;;;1.50;;
12312;SDS011;6220;53.580;9.758;2023-08-17T03:15:16;3.77;;;1.57;;
12312;SDS011;6220;53.580;9.758;2023-08-17T03:17:41;2.43;;;1.63;;
12312;SDS011;6220;53.580;9.758;2023-08-17T03:20:07;2.17;;;1.70;;
12312;SDS011;6220;53.580;9.758;2023-08-17T03:22:33;2.50;;;1.53;;
12312;SDS011;6220;53.580;9.758;2023-08-17T03:24:59;3.53;;;1.70;;
12312;SDS011;6220;53.580;9.758;2023-08-17T03:27:24;4.90;;;2.00;;
12312;SDS011;6220;53.580;9.758;2023-08-17T03:29:50;3.53;;;1.97;;
12312;SDS011;6220;53.580;9.758;2023-08-17T03:32:15;3.17;;;1.70;;
12312;SDS011;6220;53.580;9.758;2023-08-17T03:34:41;4.67;;;1.63;;
12312;SDS011;6220;53.580;9.758;2023-08-17T03:37:06;2.97;;;1.30;;
12312;SDS011;6220;53.580;9.758;2023-08-17T03:39:32;2.63;;;1.53;;
12312;SDS011;6220;53.580;9.758;2023-08-17T03:41:57;3.00;;;1.67;;
12312;SDS011;6220;53.580;9.758;2023-08-17T03:44:22;4.87;;;1.80;;
12312;SDS011;6220;53.580;9.758;2023-08-17T03:46:48;2.90;;;1.80;;
12312;SDS011;6220;53.580;9.758;2023-08-17T03:49:13;3.63;;;1.70;;
12312;SDS011;6220;53.580;9.758;2023-08-17T03:51:39;6.87;;;1.60;;
12312;SDS011;6220;53.580;9.758;2023-08-17T03:54:04;3.87;;;1.93;;
12312;SDS011;6220;53.580;9.758;2023-08-17T03:56:30;4.00;;;1.80;;
12312;SDS011;6220;53.580;9.758;2023-08-17T03:58:55;3.07;;;1.50;;
12312;SDS011;6220;53.580;9.758;2023-08-17T04:01:20;3.37;;;1.90;;
12312;SDS011;6220;53.580;9.758;2023-08-17T04:03:46;2.40;;;1.60;;
12312;SDS011;6220;53.580;9.758;2023-08-17T04:06:11;5.40;;;1.93;;
12312;SDS011;6220;53.580;9.758;2023-08-17T04:08:37;7.87;;;2.07;;
12312;SDS011;6220;53.580;9.758;2023-08-17T04:11:03;3.53;;;1.97;;
12312;SDS011;6220;53.580;9.758;2023-08-17T04:13:28;2.10;;;1.70;;
12312;SDS011;6220;53.580;9.758;2023-08-17T04:15:54;3.97;;;1.83;;
12312;SDS011;6220;53.580;9.758;2023-08-17T04:18:19;3.23;;;1.53;;
12312;SDS011;6220;53.580;9.758;2023-08-17T04:20:44;2.40;;;1.50;;
12312;SDS011;6220;53.580;9.758;2023-08-17T04:23:10;5.00;;;1.80;;
12312;SDS011;6220;53.580;9.758;2023-08-17T04:25:35;3.53;;;1.77;;
12312;SDS011;6220;53.580;9.758;2023-08-17T04:28:00;2.93;;;1.60;;
12312;SDS011;6220;53.580;9.758;2023-08-17T04:30:26;2.40;;;1.60;;
12312;SDS011;6220;53.580;9.758;2023-08-17T04:32:51;3.20;;;1.73;;
12312;SDS011;6220;53.580;9.758;2023-08-17T04:35:17;3.33;;;1.70;;
12312;SDS011;6220;53.580;9.758;2023-08-17T04:37:43;4.40;;;1.77;;
12312;SDS011;6220;53.580;9.758;2023-08-17T04:40:09;2.67;;;1.50;;
12312;SDS011;6220;53.580;9.758;2023-08-17T04:42:35;2.57;;;1.63;;
12312;SDS011;6220;53.580;9.758;2023-08-17T04:45:00;5.90;;;1.70;;
12312;SDS011;6220;53.580;9.758;2023-08-17T04:47:26;3.53;;;1.83;;
12312;SDS011;6220;53.580;9.758;2023-08-17T04:49:51;2.97;;;1.60;;
12312;SDS011;6220;53.580;9.758;2023-08-17T04:52:16;2.17;;;1.60;;
12312;SDS011;6220;53.580;9.758;2023-08-17T04:54:42;2.67;;;1.50;;
12312;SDS011;6220;53.580;9.758;2023-08-17T04:57:07;5.20;;;1.80;;
12312;SDS011;6220;53.580;9.758;2023-08-17T04:59:33;6.97;;;2.30;;
12312;SDS011;6220;53.580;9.758;2023-08-17T05:01:58;5.40;;;2.07;;
12312;SDS011;6220;53.580;9.758;2023-08-17T05:04:23;4.03;;;1.90;;
12312;SDS011;6220;53.580;9.758;2023-08-17T05:06:49;3.33;;;1.83;;
12312;SDS011;6220;53.580;9.758;2023-08-17T05:09:14;3.80;;;2.10;;
12312;SDS011;6220;53.580;9.758;2023-08-17T05:11:39;5.70;;;2.30;;
12312;SDS011;6220;53.580;9.758;2023-08-17T05:14:04;2.53;;;1.87;;
12312;SDS011;6220;53.580;9.758;2023-08-17T05:16:30;4.20;;;1.90;;
12312;SDS011;6220;53.580;9.758;2023-08-17T05:18:55;4.47;;;1.97;;
12312;SDS011;6220;53.580;9.758;2023-08-17T05:21:22;2.97;;;1.80;;
12312;SDS011;6220;53.580;9.758;2023-08-17T05:23:48;3.50;;;1.90;;
12312;SDS011;6220;53.580;9.758;2023-08-17T05:26:13;4.87;;;2.37;;
12312;SDS011;6220;53.580;9.758;2023-08-17T05:28:38;3.43;;;1.83;;
12312;SDS011;6220;53.580;9.758;2023-08-17T05:31:07;3.60;;;1.80;;
12312;SDS011;6220;53.580;9.758;2023-08-17T05:33:33;3.90;;;2.10;;
12312;SDS011;6220;53.580;9.758;2023-08-17T05:35:59;3.93;;;1.80;;
12312;SDS011;6220;53.580;9.758;2023-08-17T05:38:24;3.07;;;1.80;;
12312;SDS011;6220;53.580;9.758;2023-08-17T05:40:56;4.33;;;2.00;;
12312;SDS011;6220;53.580;9.758;2023-08-17T05:43:22;5.30;;;2.10;;
12312;SDS011;6220;53.580;9.758;2023-08-17T05:45:48;4.80;;;2.27;;
12312;SDS011;6220;53.580;9.758;2023-08-17T05:48:13;4.33;;;2.30;;
12312;SDS011;6220;53.580;9.758;2023-08-17T05:50:42;2.37;;;2.00;;
12312;SDS011;6220;53.580;9.758;2023-08-17T05:53:07;3.97;;;2.27;;
12312;SDS011;6220;53.580;9.758;2023-08-17T05:55:33;4.80;;;2.07;;
12312;SDS011;6220;53.580;9.758;2023-08-17T05:57:58;4.20;;;2.03;;
12312;SDS011;6220;53.580;9.758;2023-08-17T06:00:23;3.93;;;2.50;;
12312;SDS011;6220;53.580;9.758;2023-08-17T06:02:49;7.67;;;2.67;;
12312;SDS011;6220;53.580;9.758;2023-08-17T06:05:16;4.63;;;2.60;;
12312;SDS011;6220;53.580;9.758;2023-08-17T06:07:42;4.67;;;2.67;;
12312;SDS011;6220;53.580;9.758;2023-08-17T06:10:08;3.57;;;1.90;;
12312;SDS011;6220;53.580;9.758;2023-08-17T06:12:34;3.37;;;2.07;;
12312;SDS011;6220;53.580;9.758;2023-08-17T06:14:59;5.17;;;2.50;;
12312;SDS011;6220;53.580;9.758;2023-08-17T06:17:24;4.27;;;2.43;;
12312;SDS011;6220;53.580;9.758;2023-08-17T06:19:50;3.97;;;2.27;;
12312;SDS011;6220;53.580;9.758;2023-08-17T06:22:15;4.10;;;2.53;;
12312;SDS011;6220;53.580;9.758;2023-08-17T06:24:40;5.53;;;2.10;;
12312;SDS011;6220;53.580;9.758;2023-08-17T06:27:05;4.83;;;2.50;;
12312;SDS011;6220;53.580;9.758;2023-08-17T06:29:31;5.50;;;2.87;;
12312;SDS011;6220;53.580;9.758;2023-08-17T06:31:56;6.07;;;2.50;;
12312;SDS011;6220;53.580;9.758;2023-08-17T06:34:21;4.70;;;2.43;;
12312;SDS011;6220;53.580;9.758;2023-08-17T06:36:56;3.27;;;2.27;;
12312;SDS011;6220;53.580;9.758;2023-08-17T06:39:23;4.63;;;2.40;;
12312;SDS011;6220;53.580;9.758;2023-08-17T06:41:48;6.70;;;2.40;;
12312;SDS011;6220;53.580;9.758;2023-08-17T06:44:13;4.43;;;2.50;;
12312;SDS011;6220;53.580;9.758;2023-08-17T06:46:39;4.80;;;2.73;;
12312;SDS011;6220;53.580;9.758;2023-08-17T06:49:04;3.70;;;2.53;;
12312;SDS011;6220;53.580;9.758;2023-08-17T06:51:29;5.70;;;2.63;;
12312;SDS011;6220;53.580;9.758;2023-08-17T06:53:55;4.87;;;2.93;;
12312;SDS011;6220;53.580;9.758;2023-08-17T06:56:20;3.90;;;2.60;;
12312;SDS011;6220;53.580;9.758;2023-08-17T06:58:47;4.60;;;2.80;;
12312;SDS011;6220;53.580;9.758;2023-08-17T07:01:13;5.07;;;3.40;;
12312;SDS011;6220;53.580;9.758;2023-08-17T07:03:39;5.07;;;2.80;;
12312;SDS011;6220;53.580;9.758;2023-08-17T07:06:04;5.43;;;3.20;;
12312;SDS011;6220;53.580;9.758;2023-08-17T07:08:30;4.70;;;2.60;;
12312;SDS011;6220;53.580;9.758;2023-08-17T07:10:55;3.53;;;2.60;;
12312;SDS011;6220;53.580;9.758;2023-08-17T07:13:20;6.10;;;2.90;;
12312;SDS011;6220;53.580;9.758;2023-08-17T07:15:46;4.57;;;2.80;;
12312;SDS011;6220;53.580;9.758;2023-08-17T07:18:11;4.93;;;2.90;;
12312;SDS011;6220;53.580;9.758;2023-08-17T07:20:36;4.17;;;2.60;;
12312;SDS011;6220;53.580;9.758;2023-08-17T07:23:02;5.60;;;2.43;;
12312;SDS011;6220;53.580;9.758;2023-08-17T07:25:27;4.70;;;2.70;;
12312;SDS011;6220;53.580;9.758;2023-08-17T07:27:53;3.83;;;2.50;;
12312;SDS011;6220;53.580;9.758;2023-08-17T07:30:19;3.60;;;2.43;;
12312;SDS011;6220;53.580;9.758;2023-08-17T07:32:44;3.53;;;2.47;;
12312;SDS011;6220;53.580;9.758;2023-08-17T07:35:09;6.17;;;2.47;;
12312;SDS011;6220;53.580;9.758;2023-08-17T07:37:35;5.27;;;2.40;;
12312;SDS011;6220;53.580;9.758;2023-08-17T07:40:00;5.30;;;2.50;;
12312;SDS011;6220;53.580;9.758;2023-08-17T07:42:28;3.73;;;1.97;;
12312;SDS011;6220;53.580;9.758;2023-08-17T07:44:53;4.93;;;2.10;;
12312;SDS011;6220;53.580;9.758;2023-08-17T07:47:19;6.70;;;2.30;;
12312;SDS011;6220;53.580;9.758;2023-08-17T07:49:44;3.90;;;2.20;;
12312;SDS011;6220;53.580;9.758;2023-08-17T07:52:09;4.13;;;2.03;;
12312;SDS011;6220;53.580;9.758;2023-08-17T07:54:35;4.40;;;1.93;;
12312;SDS011;6220;53.580;9.758;2023-08-17T07:57:00;5.13;;;1.90;;
12312;SDS011;6220;53.580;9.758;2023-08-17T07:59:25;4.70;;;2.00;;
12312;SDS011;6220;53.580;9.758;2023-08-17T08:01:51;3.33;;;2.27;;
12312;SDS011;6220;53.580;9.758;2023-08-17T08:04:16;2.47;;;2.00;;
12312;SDS011;6220;53.580;9.758;2023-08-17T08:06:42;3.37;;;1.70;;
12312;SDS011;6220;53.580;9.758;2023-08-17T08:09:07;4.17;;;2.27;;
12312;SDS011;6220;53.580;9.758;2023-08-17T08:11:32;3.67;;;1.90;;
12312;SDS011;6220;53.580;9.758;2023-08-17T08:13:58;5.03;;;2.23;;
12312;SDS011;6220;53.580;9.758;2023-08-17T08:16:23;4.07;;;2.30;;
12312;SDS011;6220;53.580;9.758;2023-08-17T08:18:48;3.90;;;2.17;;
12312;SDS011;6220;53.580;9.758;2023-08-17T08:21:14;3.57;;;2.10;;
12312;SDS011;6220;53.580;9.758;2023-08-17T08:23:39;3.10;;;2.03;;
12312;SDS011;6220;53.580;9.758;2023-08-17T08:26:04;3.33;;;1.90;;
12312;SDS011;6220;53.580;9.758;2023-08-17T08:28:30;5.83;;;2.20;;
12312;SDS011;6220;53.580;9.758;2023-08-17T08:30:55;2.80;;;2.07;;
12312;SDS011;6220;53.580;9.758;2023-08-17T08:33:20;5.50;;;2.30;;
12312;SDS011;6220;53.580;9.758;2023-08-17T08:35:46;2.90;;;2.07;;
12312;SDS011;6220;53.580;9.758;2023-08-17T08:38:11;5.97;;;2.23;;
12312;SDS011;6220;53.580;9.758;2023-08-17T08:40:37;4.93;;;2.17;;
12312;SDS011;6220;53.580;9.758;2023-08-17T08:43:04;6.60;;;2.80;;
12312;SDS011;6220;53.580;9.758;2023-08-17T08:45:29;5.37;;;2.43;;
12312;SDS011;6220;53.580;9.758;2023-08-17T08:47:55;5.97;;;2.33;;
12312;SDS011;6220;53.580;9.758;2023-08-17T08:50:21;3.83;;;2.60;;
12312;SDS011;6220;53.580;9.758;2023-08-17T08:55:37;5.83;;;2.70;;
12312;SDS011;6220;53.580;9.758;2023-08-17T08:58:03;9.97;;;2.80;;
12312;SDS011;6220;53.580;9.758;2023-08-17T09:00:29;4.80;;;2.87;;
12312;SDS011;6220;53.580;9.758;2023-08-17T09:02:55;4.37;;;2.10;;
12312;SDS011;6220;53.580;9.758;2023-08-17T09:05:20;5.50;;;2.33;;
12312;SDS011;6220;53.580;9.758;2023-08-17T09:07:47;3.67;;;2.30;;
12312;SDS011;6220;53.580;9.758;2023-08-17T09:10:13;3.73;;;2.33;;
12312;SDS011;6220;53.580;9.758;2023-08-17T09:12:41;5.10;;;2.43;;
12312;SDS011;6220;53.580;9.758;2023-08-17T09:15:06;2.57;;;1.87;;
12312;SDS011;6220;53.580;9.758;2023-08-17T09:17:32;5.43;;;1.90;;
12312;SDS011;6220;53.580;9.758;2023-08-17T09:19:59;2.07;;;1.70;;
12312;SDS011;6220;53.580;9.758;2023-08-17T09:22:25;3.23;;;2.00;;
12312;SDS011;6220;53.580;9.758;2023-08-17T09:25:10;2.87;;;2.20;;
12312;SDS011;6220;53.580;9.758;2023-08-17T09:27:39;3.10;;;1.83;;
12312;SDS011;6220;53.580;9.758;2023-08-17T09:30:10;3.97;;;2.17;;
12312;SDS011;6220;53.580;9.758;2023-08-17T09:32:36;2.80;;;1.90;;
12312;SDS011;6220;53.580;9.758;2023-08-17T09:35:02;3.20;;;2.00;;
12312;SDS011;6220;53.580;9.758;2023-08-17T09:37:28;3.57;;;2.30;;
12312;SDS011;6220;53.580;9.758;2023-08-17T09:39:53;2.57;;;1.90;;
12312;SDS011;6220;53.580;9.758;2023-08-17T09:42:20;4.67;;;2.23;;
12312;SDS011;6220;53.580;9.758;2023-08-17T09:44:47;3.13;;;2.03;;
12312;SDS011;6220;53.580;9.758;2023-08-17T09:47:12;5.20;;;2.00;;
12312;SDS011;6220;53.580;9.758;2023-08-17T09:49:38;6.00;;;2.13;;
12312;SDS011;6220;53.580;9.758;2023-08-17T09:52:04;2.73;;;2.00;;
12312;SDS011;6220;53.580;9.758;2023-08-17T09:54:30;4.10;;;2.20;;
12312;SDS011;6220;53.580;9.758;2023-08-17T09:56:57;3.87;;;2.40;;
12312;SDS011;6220;53.580;9.758;2023-08-17T09:59:23;3.60;;;2.17;;
12312;SDS011;6220;53.580;9.758;2023-08-17T10:01:49;3.40;;;2.60;;
12312;SDS011;6220;53.580;9.758;2023-08-17T10:04:21;3.63;;;2.30;;
12312;SDS011;6220;53.580;9.758;2023-08-17T10:06:51;4.77;;;2.10;;
12312;SDS011;6220;53.580;9.758;2023-08-17T10:09:21;3.83;;;2.27;;
12312;SDS011;6220;53.580;9.758;2023-08-17T10:11:50;3.87;;;2.40;;
12312;SDS011;6220;53.580;9.758;2023-08-17T10:14:18;4.57;;;2.10;;
12312;SDS011;6220;53.580;9.758;2023-08-17T10:16:51;4.17;;;2.30;;
12312;SDS011;6220;53.580;9.758;2023-08-17T10:22:11;4.70;;;2.40;;
12312;SDS011;6220;53.580;9.758;2023-08-17T10:24:40;2.97;;;2.17;;
12312;SDS011;6220;53.580;9.758;2023-08-17T10:27:05;4.43;;;2.63;;
12312;SDS011;6220;53.580;9.758;2023-08-17T10:29:34;4.20;;;2.50;;
12312;SDS011;6220;53.580;9.758;2023-08-17T10:32:02;4.67;;;2.67;;
12312;SDS011;6220;53.580;9.758;2023-08-17T10:34:30;5.27;;;2.67;;
12312;SDS011;6220;53.580;9.758;2023-08-17T10:36:56;3.87;;;2.20;;
12312;SDS011;6220;53.580;9.758;2023-08-17T10:41:52;2.73;;;2.00;;
12312;SDS011;6220;53.580;9.758;2023-08-17T10:44:18;2.73;;;1.67;;
12312;SDS011;6220;53.580;9.758;2023-08-17T10:49:57;2.87;;;1.50;;
12312;SDS011;6220;53.580;9.758;2023-08-17T10:52:47;3.47;;;1.43;;
12312;SDS011;6220;53.580;9.758;2023-08-17T10:55:13;2.77;;;1.70;;
12312;SDS011;6220;53.580;9.758;2023-08-17T11:02:38;2.47;;;1.50;;
12312;SDS011;6220;53.580;9.758;2023-08-17T11:05:04;1.77;;;1.47;;
12312;SDS011;6220;53.580;9.758;2023-08-17T11:07:40;2.00;;;1.53;;
12312;SDS011;6220;53.580;9.758;2023-08-17T11:12:38;2.83;;;1.80;;
12312;SDS011;6220;53.580;9.758;2023-08-17T11:15:03;4.10;;;1.60;;
12312;SDS011;6220;53.580;9.758;2023-08-17T11:17:29;4.20;;;1.50;;
12312;SDS011;6220;53.580;9.758;2023-08-17T11:19:55;2.80;;;1.90;;
12312;SDS011;6220;53.580;9.758;2023-08-17T11:22:20;1.63;;;1.53;;
12312;SDS011;6220;53.580;9.758;2023-08-17T11:24:45;2.83;;;1.87;;
12312;SDS011;6220;53.580;9.758;2023-08-17T11:27:11;3.27;;;1.70;;
12312;SDS011;6220;53.580;9.758;2023-08-17T11:29:37;3.33;;;1.77;;
12312;SDS011;6220;53.580;9.758;2023-08-17T11:32:03;3.27;;;1.50;;
12312;SDS011;6220;53.580;9.758;2023-08-17T11:34:29;2.57;;;1.70;;
12312;SDS011;6220;53.580;9.758;2023-08-17T11:36:56;2.63;;;1.80;;
12312;SDS011;6220;53.580;9.758;2023-08-17T11:39:22;4.57;;;2.10;;
12312;SDS011;6220;53.580;9.758;2023-08-17T11:41:48;2.53;;;1.70;;
12312;SDS011;6220;53.580;9.758;2023-08-17T11:44:13;3.53;;;1.83;;
12312;SDS011;6220;53.580;9.758;2023-08-17T11:46:39;4.60;;;3.17;;
12312;SDS011;6220;53.580;9.758;2023-08-17T11:49:06;5.60;;;2.07;;
12312;SDS011;6220;53.580;9.758;2023-08-17T11:51:31;2.47;;;2.10;;
12312;SDS011;6220;53.580;9.758;2023-08-17T11:54:00;3.63;;;2.30;;
12312;SDS011;6220;53.580;9.758;2023-08-17T11:56:25;2.90;;;1.67;;
12312;SDS011;6220;53.580;9.758;2023-08-17T11:58:51;2.50;;;1.80;;
12312;SDS011;6220;53.580;9.758;2023-08-17T12:01:16;3.07;;;2.03;;
12312;SDS011;6220;53.580;9.758;2023-08-17T12:03:41;3.63;;;2.20;;
12312;SDS011;6220;53.580;9.758;2023-08-17T12:06:07;2.17;;;1.97;;
12312;SDS011;6220;53.580;9.758;2023-08-17T12:08:33;4.10;;;2.00;;
12312;SDS011;6220;53.580;9.758;2023-08-17T12:10:59;3.00;;;1.87;;
12312;SDS011;6220;53.580;9.758;2023-08-17T12:13:34;3.77;;;2.20;;
12312;SDS011;6220;53.580;9.758;2023-08-17T12:16:00;3.67;;;2.50;;
12312;SDS011;6220;53.580;9.758;2023-08-17T12:18:25;2.40;;;2.20;;
12312;SDS011;6220;53.580;9.758;2023-08-17T12:20:54;4.30;;;2.37;;
12312;SDS011;6220;53.580;9.758;2023-08-17T12:23:20;4.70;;;2.57;;
12312;SDS011;6220;53.580;9.758;2023-08-17T12:25:45;2.40;;;1.97;;
12312;SDS011;6220;53.580;9.758;2023-08-17T12:28:13;2.93;;;2.47;;
12312;SDS011;6220;53.580;9.758;2023-08-17T12:30:39;3.17;;;2.27;;
12312;SDS011;6220;53.580;9.758;2023-08-17T12:33:04;3.43;;;2.40;;
12312;SDS011;6220;53.580;9.758;2023-08-17T12:35:30;4.70;;;2.60;;
12312;SDS011;6220;53.580;9.758;2023-08-17T12:37:56;2.47;;;2.27;;
12312;SDS011;6220;53.580;9.758;2023-08-17T12:40:22;3.23;;;2.53;;
12312;SDS011;6220;53.580;9.758;2023-08-17T12:42:48;2.93;;;2.37;;
12312;SDS011;6220;53.580;9.758;2023-08-17T12:45:13;2.90;;;2.60;;
12312;SDS011;6220;53.580;9.758;2023-08-17T12:47:39;2.40;;;2.20;;
12312;SDS011;6220;53.580;9.758;2023-08-17T12:50:04;3.50;;;2.17;;
12312;SDS011;6220;53.580;9.758;2023-08-17T12:52:30;3.40;;;2.40;;
12312;SDS011;6220;53.580;9.758;2023-08-17T12:54:56;5.10;;;2.90;;
12312;SDS011;6220;53.580;9.758;2023-08-17T12:57:21;3.87;;;2.40;;
12312;SDS011;6220;53.580;9.758;2023-08-17T12:59:46;4.90;;;2.40;;
12312;SDS011;6220;53.580;9.758;2023-08-17T13:02:12;5.50;;;2.73;;
12312;SDS011;6220;53.580;9.758;2023-08-17T13:04:37;3.40;;;2.40;;
12312;SDS011;6220;53.580;9.758;2023-08-17T13:07:02;3.63;;;2.30;;
12312;SDS011;6220;53.580;9.758;2023-08-17T13:09:29;3.93;;;2.40;;
12312;SDS011;6220;53.580;9.758;2023-08-17T13:11:54;2.77;;;2.33;;
12312;SDS011;6220;53.580;9.758;2023-08-17T13:14:19;3.77;;;2.20;;
12312;SDS011;6220;53.580;9.758;2023-08-17T13:16:45;2.67;;;2.00;;
12312;SDS011;6220;53.580;9.758;2023-08-17T13:19:10;4.53;;;2.43;;
12312;SDS011;6220;53.580;9.758;2023-08-17T13:21:35;3.53;;;2.40;;
12312;SDS011;6220;53.580;9.758;2023-08-17T13:24:01;2.43;;;1.97;;
12312;SDS011;6220;53.580;9.758;2023-08-17T13:26:28;3.43;;;2.07;;
12312;SDS011;6220;53.580;9.758;2023-08-17T13:28:53;3.67;;;2.17;;
12312;SDS011;6220;53.580;9.758;2023-08-17T13:31:18;4.70;;;2.40;;
12312;SDS011;6220;53.580;9.758;2023-08-17T13:33:44;4.53;;;2.47;;
12312;SDS011;6220;53.580;9.758;2023-08-17T13:36:09;3.90;;;2.33;;
12312;SDS011;6220;53.580;9.758;2023-08-17T13:38:34;3.03;;;2.27;;
12312;SDS011;6220;53.580;9.758;2023-08-17T13:41:00;2.73;;;2.37;;
12312;SDS011;6220;53.580;9.758;2023-08-17T13:43:25;3.00;;;2.27;;
12312;SDS011;6220;53.580;9.758;2023-08-17T13:45:50;4.40;;;2.33;;
12312;SDS011;6220;53.580;9.758;2023-08-17T13:48:15;4.27;;;2.37;;
12312;SDS011;6220;53.580;9.758;2023-08-17T13:50:41;5.67;;;2.33;;
12312;SDS011;6220;53.580;9.758;2023-08-17T13:53:06;3.20;;;2.17;;
12312;SDS011;6220;53.580;9.758;2023-08-17T13:55:32;2.77;;;2.20;;
12312;SDS011;6220;53.580;9.758;2023-08-17T13:57:57;2.87;;;1.97;;
12312;SDS011;6220;53.580;9.758;2023-08-17T14:00:23;2.57;;;1.63;;
12312;SDS011;6220;53.580;9.758;2023-08-17T14:02:49;2.60;;;1.60;;
12312;SDS011;6220;53.580;9.758;2023-08-17T14:05:14;1.30;;;1.20;;
12312;SDS011;6220;53.580;9.758;2023-08-17T14:07:40;1.37;;;1.27;;
12312;SDS011;6220;53.580;9.758;2023-08-17T14:10:05;1.77;;;1.30;;
12312;SDS011;6220;53.580;9.758;2023-08-17T14:12:31;1.83;;;1.30;;
12312;SDS011;6220;53.580;9.758;2023-08-17T14:14:56;1.97;;;1.30;;
12312;SDS011;6220;53.580;9.758;2023-08-17T14:17:21;2.43;;;1.40;;
12312;SDS011;6220;53.580;9.758;2023-08-17T14:19:47;1.53;;;1.10;;
12312;SDS011;6220;53.580;9.758;2023-08-17T14:22:12;1.27;;;1.17;;
12312;SDS011;6220;53.580;9.758;2023-08-17T14:24:38;1.30;;;1.10;;
12312;SDS011;6220;53.580;9.758;2023-08-17T14:27:03;1.73;;;1.20;;
12312;SDS011;6220;53.580;9.758;2023-08-17T14:29:28;2.13;;;1.00;;
12312;SDS011;6220;53.580;9.758;2023-08-17T14:31:54;2.93;;;1.30;;
12312;SDS011;6220;53.580;9.758;2023-08-17T14:34:19;3.13;;;1.20;;
12312;SDS011;6220;53.580;9.758;2023-08-17T14:36:46;2.10;;;1.23;;
12312;SDS011;6220;53.580;9.758;2023-08-17T14:39:11;1.10;;;1.00;;
12312;SDS011;6220;53.580;9.758;2023-08-17T14:41:37;1.60;;;1.20;;
12312;SDS011;6220;53.580;9.758;2023-08-17T14:44:02;1.20;;;0.90;;
12312;SDS011;6220;53.580;9.758;2023-08-17T14:46:27;1.77;;;1.13;;
12312;SDS011;6220;53.580;9.758;2023-08-17T14:48:53;2.10;;;1.03;;
12312;SDS011;6220;53.580;9.758;2023-08-17T14:51:19;1.43;;;1.00;;
12312;SDS011;6220;53.580;9.758;2023-08-17T14:53:44;1.43;;;1.07;;
12312;SDS011;6220;53.580;9.758;2023-08-17T14:56:09;2.77;;;1.33;;
12312;SDS011;6220;53.580;9.758;2023-08-17T14:58:35;3.27;;;1.40;;
12312;SDS011;6220;53.580;9.758;2023-08-17T15:01:00;2.33;;;1.50;;
12312;SDS011;6220;53.580;9.758;2023-08-17T15:03:25;2.03;;;1.23;;
12312;SDS011;6220;53.580;9.758;2023-08-17T15:05:51;2.07;;;1.20;;
12312;SDS011;6220;53.580;9.758;2023-08-17T15:08:17;1.87;;;1.30;;
12312;SDS011;6220;53.580;9.758;2023-08-17T15:10:42;1.20;;;1.10;;
12312;SDS011;6220;53.580;9.758;2023-08-17T15:13:07;1.10;;;0.90;;